Aviation Digital Data Service (ADDS)

Output produced by METARs form (2113 UTC 31 January 2023)
found at http://www.aviationweather.gov/metar/data/
 
VTBD 312100Z 02003KT 9000 NSC 22/16 Q1010 NOSIG
VTBD 312030Z 03003KT 9000 NSC 22/16 Q1010 NOSIG
VTBD 312000Z 00000KT CAVOK 23/16 Q1010 NOSIG
VTBD 311930Z 00000KT CAVOK 23/15 Q1010 NOSIG
VTBD 311900Z 00000KT CAVOK 23/14 Q1011 NOSIG
VTBD 311830Z VRB01KT CAVOK 24/14 Q1011 NOSIG
VTBD 311800Z 28003KT 240V330 CAVOK 25/13 Q1011 NOSIG
VTBD 311730Z 00000KT CAVOK 23/13 Q1011 NOSIG
VTBD 311700Z 00000KT CAVOK 24/13 Q1011 NOSIG
VTBD 311630Z 00000KT CAVOK 23/13 Q1011 NOSIG
VTBD 311600Z VRB02KT CAVOK 25/13 Q1011 NOSIG
VTBD 311530Z VRB02KT CAVOK 25/12 Q1011 NOSIG
VTBD 311500Z 30003KT 250V340 CAVOK 27/12 Q1011 NOSIG
VTBD 311430Z 00000KT CAVOK 25/12 Q1011 NOSIG
VTBD 311400Z 31005KT 240V360 CAVOK 27/13 Q1011 NOSIG
VTBD 311330Z 29004KT 230V310 CAVOK 27/13 Q1011 NOSIG
VTBD 311300Z 30004KT 250V320 CAVOK 27/13 Q1011 NOSIG
VTBD 311230Z 31005KT 250V340 CAVOK 27/13 Q1010 NOSIG
VTBD 311200Z 34005KT 260V020 CAVOK 28/13 Q1010 NOSIG
VTBD 311130Z 35006KT 320V030 CAVOK 28/12 Q1009 NOSIG
VTBD 311100Z 35006KT 320V030 CAVOK 29/12 Q1009 NOSIG
VTBD 311030Z 36006KT 320V040 CAVOK 30/13 Q1009 NOSIG
VTBD 311000Z 03005KT 360V080 CAVOK 30/13 Q1009 NOSIG
VTBD 310930Z 09005KT 030V130 CAVOK 31/13 Q1009 NOSIG
VTBD 310900Z 10003KT 020V190 CAVOK 31/12 Q1009 NOSIG
VTBD 310830Z VRB04KT CAVOK 31/12 Q1009 NOSIG
VTBD 310800Z VRB04KT CAVOK 31/11 Q1009 NOSIG
VTBD 310730Z VRB03KT CAVOK 31/11 Q1010 NOSIG
VTBD 310700Z VRB04KT 9000 NSC 30/11 Q1010 NOSIG
VTBD 310630Z VRB04KT 9000 NSC 29/10 Q1011 NOSIG
VTBD 310600Z VRB04KT 9000 NSC 29/10 Q1012 NOSIG
VTBD 310530Z VRB03KT 9000 NSC 29/10 Q1013 NOSIG
VTBD 310500Z VRB04KT 8000 NSC 28/10 Q1013 NOSIG
VTBD 310430Z VRB03KT 8000 NSC 28/09 Q1014 NOSIG
VTBD 310400Z VRB03KT 8000 NSC 27/09 Q1014 NOSIG
VTBD 310330Z VRB03KT 8000 NSC 26/09 Q1015 NOSIG
VTBD 310300Z 29004KT 230V340 8000 NSC 25/10 Q1015 NOSIG
VTBD 310230Z VRB02KT 8000 NSC 23/10 Q1015 NOSIG
VTBD 310200Z VRB02KT 8000 NSC 22/10 Q1015 NOSIG
VTBD 310130Z VRB02KT 8000 NSC 21/10 Q1014 NOSIG
VTBD 310100Z 30003KT 230V350 8000 NSC 20/10 Q1014 NOSIG
VTBD 310030Z 30003KT 260V330 8000 NSC 20/11 Q1014 NOSIG
VTBD 310000Z 31003KT 260V360 8000 NSC 20/11 Q1013 NOSIG
VTBD 302330Z 33004KT 230V010 CAVOK 19/11 Q1013 NOSIG
VTBD 302300Z 32004KT CAVOK 19/11 Q1013 NOSIG
VTBD 302230Z 34004KT CAVOK 19/11 Q1012 NOSIG
VTBD 302200Z 36005KT 330V030 CAVOK 19/11 Q1012 NOSIG
VTBD 302130Z 34005KT 310V010 CAVOK 20/11 Q1012 NOSIG
VTBD 302100Z 33004KT CAVOK 20/13 Q1012 NOSIG
VTBD 302030Z 31005KT CAVOK 20/13 Q1012 NOSIG
TAF VTBD 311700Z 3118/0124 31005KT 9000 NSC 
     BECMG 3122/3124 02005KT 
     BECMG 0106/0108 10008KT 
     BECMG 0114/0116 30005KT